createdAt,value
2023-08-17T00:03:55.620Z,5.38
2023-08-17T00:08:47.441Z,5.25
2023-08-17T00:13:39.163Z,5.50
2023-08-17T00:18:31.197Z,5.43
2023-08-17T00:23:23.045Z,5.00
2023-08-17T00:28:15.405Z,5.05
2023-08-17T00:33:07.307Z,5.57
2023-08-17T00:37:59.721Z,5.30
2023-08-17T00:42:51.445Z,5.00
2023-08-17T00:47:43.693Z,5.20
2023-08-17T00:52:35.651Z,5.45
2023-08-17T00:57:28.273Z,5.10
2023-08-17T01:02:20.765Z,5.00
2023-08-17T01:07:12.536Z,4.95
2023-08-17T01:12:29.672Z,5.47
2023-08-17T01:17:33.446Z,5.32
2023-08-17T01:22:27.269Z,5.07
2023-08-17T01:27:19.127Z,5.07
2023-08-17T01:32:33.384Z,5.32
2023-08-17T01:37:29.731Z,5.32
2023-08-17T01:42:23.562Z,5.10
2023-08-17T01:47:15.580Z,5.38
2023-08-17T01:52:07.428Z,5.22
2023-08-17T01:56:59.143Z,5.55
2023-08-17T02:01:51.199Z,5.60
2023-08-17T02:06:42.982Z,5.68
2023-08-17T02:11:34.739Z,6.03
2023-08-17T02:16:26.570Z,5.75
2023-08-17T02:21:18.389Z,5.95
2023-08-17T02:26:12.078Z,5.95
2023-08-17T02:31:03.884Z,6.18
2023-08-17T02:35:55.727Z,6.43
2023-08-17T02:40:49.538Z,6.28
2023-08-17T02:45:41.282Z,5.97
2023-08-17T02:50:32.987Z,5.20
2023-08-17T02:55:24.865Z,5.97
2023-08-17T03:00:16.614Z,6.25
2023-08-17T03:05:08.487Z,6.35
2023-08-17T03:10:00.239Z,6.28
2023-08-17T03:14:52.001Z,6.55
2023-08-17T03:19:43.697Z,6.25
2023-08-17T03:24:35.597Z,5.80
2023-08-17T03:29:28.221Z,5.53
2023-08-17T03:34:20.908Z,5.70
2023-08-17T03:39:12.856Z,6.07
2023-08-17T03:44:07.156Z,6.05
2023-08-17T03:48:59.617Z,6.05
2023-08-17T03:53:51.370Z,5.60
2023-08-17T03:58:44.920Z,5.38
2023-08-17T04:03:36.775Z,5.40
2023-08-17T04:08:28.677Z,5.13
2023-08-17T04:13:20.456Z,5.85
2023-08-17T04:18:12.338Z,5.68
2023-08-17T04:23:04.382Z,6.40
2023-08-17T04:27:56.264Z,5.38
2023-08-17T04:32:53.683Z,5.82
2023-08-17T04:37:46.033Z,5.88
2023-08-17T04:42:37.837Z,5.63
2023-08-17T04:47:29.808Z,5.70
2023-08-17T04:52:21.875Z,5.25
2023-08-17T04:57:13.881Z,5.60
2023-08-17T05:02:06.296Z,5.50
2023-08-17T05:06:58.522Z,5.43
2023-08-17T05:11:50.798Z,5.53
2023-08-17T05:16:42.690Z,5.53
2023-08-17T05:21:37.050Z,5.95
2023-08-17T05:26:28.960Z,5.57
2023-08-17T05:31:20.916Z,5.30
2023-08-17T05:36:15.635Z,5.38
2023-08-17T05:41:08.231Z,5.10
2023-08-17T05:46:03.900Z,5.43
2023-08-17T05:50:57.394Z,5.57
2023-08-17T05:55:49.221Z,5.70
2023-08-17T06:00:41.034Z,5.05
2023-08-17T06:05:32.846Z,5.68
2023-08-17T06:10:26.497Z,5.30
2023-08-17T06:15:18.400Z,5.38
2023-08-17T06:20:11.216Z,5.82
2023-08-17T06:25:03.380Z,4.95
2023-08-17T06:29:55.177Z,4.95
2023-08-17T06:34:47.012Z,5.38
2023-08-17T06:39:38.739Z,5.20
2023-08-17T06:44:31.934Z,5.72
2023-08-17T06:49:23.767Z,5.20
2023-08-17T06:54:15.798Z,5.53
2023-08-17T06:59:08.159Z,5.30
2023-08-17T07:03:59.924Z,5.32
2023-08-17T07:08:51.757Z,5.30
2023-08-17T07:13:43.520Z,5.00
2023-08-17T07:18:35.280Z,5.28
2023-08-17T07:23:27.326Z,5.07
2023-08-17T07:28:19.135Z,5.40
2023-08-17T07:33:11.031Z,5.50
2023-08-17T07:38:08.917Z,5.40
2023-08-17T07:43:02.871Z,4.72
2023-08-17T07:47:54.720Z,5.82
2023-08-17T07:52:46.595Z,5.38
2023-08-17T07:57:38.362Z,4.57
2023-08-17T08:02:30.186Z,5.10
2023-08-17T08:07:22.001Z,5.03
2023-08-17T08:12:13.812Z,5.93
2023-08-17T08:17:05.524Z,4.85
2023-08-17T08:21:57.384Z,5.18
2023-08-17T08:26:49.296Z,5.68
2023-08-17T08:31:41.228Z,4.85
2023-08-17T08:36:33.316Z,5.20
2023-08-17T08:41:27.543Z,4.85
2023-08-17T08:46:21.876Z,4.90
2023-08-17T08:51:18.216Z,4.85
2023-08-17T08:56:16.070Z,5.10
2023-08-17T09:01:09.425Z,5.70
2023-08-17T09:06:01.447Z,4.95
2023-08-17T09:10:53.396Z,4.85
2023-08-17T09:15:45.156Z,4.93
2023-08-17T09:20:38.497Z,4.90
2023-08-17T09:25:30.316Z,4.93
2023-08-17T09:30:22.065Z,4.68
2023-08-17T09:35:13.775Z,5.10
2023-08-17T09:40:06.017Z,4.82
2023-08-17T09:45:02.261Z,4.82
2023-08-17T09:49:55.723Z,4.80
2023-08-17T09:54:50.591Z,4.95
2023-08-17T09:59:42.922Z,5.07
2023-08-17T10:04:36.894Z,5.00
2023-08-17T10:09:37.822Z,5.30
2023-08-17T10:14:38.309Z,4.97
2023-08-17T10:19:50.061Z,4.45
2023-08-17T10:29:39.872Z,4.78
2023-08-17T10:34:32.045Z,4.53
2023-08-17T10:39:29.460Z,4.97
2023-08-17T10:44:46.199Z,4.75
2023-08-17T10:49:39.610Z,5.10
2023-08-17T10:54:42.709Z,4.70
2023-08-17T10:59:34.500Z,5.30
2023-08-17T11:09:23.710Z,5.28
2023-08-17T11:14:15.477Z,4.93
2023-08-17T11:19:13.483Z,5.03
2023-08-17T11:24:10.312Z,5.47
2023-08-17T11:29:02.198Z,4.75
2023-08-17T11:33:56.373Z,4.82
2023-08-17T11:38:48.340Z,5.40
2023-08-17T11:43:40.267Z,4.95
2023-08-17T11:53:34.800Z,4.82
2023-08-17T11:58:44.342Z,4.97
2023-08-17T12:03:36.738Z,6.03
2023-08-17T12:08:28.769Z,5.65
2023-08-17T12:13:20.654Z,6.68
2023-08-17T12:18:12.410Z,6.20
2023-08-17T12:23:04.982Z,5.90
2023-08-17T12:27:59.636Z,5.68
2023-08-17T12:32:51.371Z,5.97
2023-08-17T12:37:43.113Z,5.93
2023-08-17T12:42:34.840Z,5.75
2023-08-17T12:47:26.634Z,5.82
2023-08-17T12:52:18.330Z,5.40
2023-08-17T12:57:12.054Z,5.85
2023-08-17T13:02:05.104Z,5.57
2023-08-17T13:06:56.867Z,5.95
2023-08-17T13:11:48.746Z,5.05
2023-08-17T13:16:40.612Z,5.25
2023-08-17T13:21:32.468Z,5.03
2023-08-17T13:26:24.221Z,5.55
2023-08-17T13:31:24.510Z,5.55
2023-08-17T13:36:16.584Z,5.13
2023-08-17T13:41:08.366Z,5.35
2023-08-17T13:46:00.361Z,5.35
2023-08-17T13:50:52.179Z,5.47
2023-08-17T13:55:43.978Z,5.93
2023-08-17T14:00:35.757Z,5.53
2023-08-17T14:05:27.607Z,5.68
2023-08-17T14:10:32.996Z,6.10
2023-08-17T14:15:29.501Z,5.78
2023-08-17T14:20:21.452Z,6.57
2023-08-17T14:25:13.234Z,5.90
2023-08-17T14:30:05.845Z,5.22
2023-08-17T14:34:57.615Z,5.40
2023-08-17T14:39:49.394Z,5.88
2023-08-17T14:44:41.214Z,5.70
2023-08-17T14:49:33.041Z,5.47
2023-08-17T14:54:26.409Z,5.88
2023-08-17T14:59:18.560Z,5.57
2023-08-17T15:04:10.535Z,5.80
2023-08-17T15:09:04.191Z,5.70
2023-08-17T15:13:56.036Z,5.88
2023-08-17T15:18:47.840Z,5.15
2023-08-17T15:23:39.680Z,5.85
2023-08-17T15:28:33.027Z,6.05
2023-08-17T15:33:24.835Z,14.38
2023-08-17T15:38:16.645Z,14.63
2023-08-17T15:43:08.503Z,15.63
2023-08-17T15:48:00.372Z,11.98
2023-08-17T15:52:52.191Z,9.85
2023-08-17T15:57:43.983Z,8.60
2023-08-17T16:02:35.879Z,8.20
2023-08-17T16:07:28.127Z,7.85
2023-08-17T16:12:20.317Z,7.45
2023-08-17T16:17:12.044Z,7.43
2023-08-17T16:22:03.894Z,7.13
2023-08-17T16:26:56.217Z,7.15
2023-08-17T16:32:08.956Z,7.35
2023-08-17T16:37:01.078Z,7.88
2023-08-17T16:41:52.992Z,7.18
2023-08-17T16:46:44.771Z,8.25
2023-08-17T16:51:36.587Z,7.93
2023-08-17T16:56:28.399Z,7.40
2023-08-17T17:01:20.357Z,7.80
2023-08-17T17:06:12.279Z,7.55
2023-08-17T17:11:04.264Z,7.38
2023-08-17T17:15:56.168Z,7.38
2023-08-17T17:20:48.189Z,7.70
2023-08-17T17:25:40.357Z,7.05
2023-08-17T17:30:32.176Z,6.60
2023-08-17T17:35:24.007Z,8.23
2023-08-17T17:40:16.041Z,7.93
2023-08-17T17:45:08.337Z,7.55
2023-08-17T17:50:00.126Z,8.15
2023-08-17T17:54:51.977Z,6.80
2023-08-17T17:59:46.306Z,8.02
2023-08-17T18:04:38.082Z,6.97
2023-08-17T18:09:31.018Z,7.32
2023-08-17T18:14:22.772Z,7.10
2023-08-17T18:19:15.486Z,7.70
2023-08-17T18:24:07.610Z,6.90
2023-08-17T18:28:59.843Z,6.88
2023-08-17T18:33:51.609Z,6.88
2023-08-17T18:38:43.504Z,6.63
2023-08-17T18:43:38.481Z,6.60
2023-08-17T18:48:30.276Z,6.63
2023-08-17T18:53:21.988Z,6.45
2023-08-17T18:58:13.741Z,7.25
2023-08-17T19:03:06.166Z,6.80
2023-08-17T19:07:58.831Z,6.32
2023-08-17T19:12:50.538Z,7.00
2023-08-17T19:17:42.383Z,6.22
2023-08-17T19:22:34.161Z,6.63
2023-08-17T19:27:26.237Z,6.75
2023-08-17T19:32:18.238Z,6.25
2023-08-17T19:37:10.222Z,6.40
2023-08-17T19:42:03.753Z,6.68
2023-08-17T19:46:56.349Z,5.82
2023-08-17T19:51:49.650Z,6.72
2023-08-17T19:56:41.834Z,5.72
2023-08-17T20:01:37.839Z,6.20
2023-08-17T20:06:30.994Z,6.20
2023-08-17T20:11:22.927Z,6.25
2023-08-17T20:16:14.821Z,6.60
2023-08-17T20:21:07.401Z,5.85
2023-08-17T20:26:00.152Z,6.15
2023-08-17T20:30:59.897Z,5.90
2023-08-17T20:35:53.492Z,5.93
2023-08-17T20:40:45.349Z,6.00
2023-08-17T20:45:41.323Z,5.90
2023-08-17T20:50:37.422Z,6.03
2023-08-17T20:55:29.156Z,6.45
2023-08-17T21:00:21.466Z,5.80
2023-08-17T21:05:13.275Z,6.60
2023-08-17T21:10:05.489Z,5.80
2023-08-17T21:14:58.636Z,5.30
2023-08-17T21:19:50.360Z,5.38
2023-08-17T21:24:42.117Z,5.60
2023-08-17T21:29:33.898Z,5.22
2023-08-17T21:34:27.620Z,4.90
2023-08-17T21:39:21.138Z,5.10
2023-08-17T21:44:13.006Z,4.88
2023-08-17T21:49:04.834Z,5.00
2023-08-17T21:53:57.269Z,4.97
2023-08-17T21:58:49.020Z,6.10
2023-08-17T22:03:40.772Z,5.57
2023-08-17T22:08:34.014Z,5.32
2023-08-17T22:13:25.742Z,5.03
2023-08-17T22:18:17.572Z,5.35
2023-08-17T22:23:09.616Z,5.07
2023-08-17T22:28:01.455Z,5.47
2023-08-17T22:32:54.133Z,5.10
2023-08-17T22:37:46.123Z,5.32
2023-08-17T22:42:39.399Z,5.25
2023-08-17T22:47:32.582Z,5.05
2023-08-17T22:52:24.809Z,5.32
2023-08-17T22:57:17.162Z,5.40
2023-08-17T23:02:09.116Z,4.90
2023-08-17T23:07:00.903Z,4.85
2023-08-17T23:11:52.728Z,4.90
2023-08-17T23:16:44.490Z,5.00
2023-08-17T23:21:36.278Z,5.18
2023-08-17T23:26:28.056Z,5.10
2023-08-17T23:31:19.871Z,4.97
2023-08-17T23:36:11.676Z,4.88
2023-08-17T23:41:03.446Z,5.25
2023-08-17T23:45:55.260Z,4.78
2023-08-17T23:50:47.013Z,4.90
2023-08-17T23:55:38.748Z,4.80
